Terminal Aerodrome Forecast
Issued by NWS Wilmington, OH

Current Version | Previous Version | Text Only | Print | Product List | Glossary Off
Versions: 1 2 3 4 5 6 7 8 9 10 11 12 13 14 15 16 17 18 19 20 21 22 23 24 25 26 27

000
FTUS41 KILN 182342
TAFCMH
TAF
KCMH 182342Z 1900/1924 08010G18KT P6SM -SHRA OVC035
     FM190200 11012KT 3SM SHRA SCT008 OVC012
     FM190800 15009KT 5SM BR VCSH OVC008
     FM191300 18012KT P6SM VCSH OVC012
     FM191800 21012G20KT P6SM -SHRA VCTS BKN025CB
     FM192200 23010KT P6SM -SHRA BKN025=

USA.gov is the U.S. government's official web portal to all federal, state and local government web resources and services.